Colbrook, Connecticut
Current Conditions -  °F | °C
As of 10:53 PM on Monday 22 Dec 2014 (Local Time) from KBAF Reporting Station
Overcast Overcast  
Wind Chill: 33°   Ceiling: 900
Heat Index: 38°   Visibility: 10mi
Dew Point: 34°   Wind: 6mph
Humidity: 86%   Direction: 10°N
Pressure: 30.26"   Gusts: NA
Location:  42.0286°N, 73.1037°W
Report Text: KBAF 230353Z AUTO 01005KT 10SM OVC009 03/01 A3026 RMK AO2 SLP252 T00330011
Loading
Personal Weather Stations






























Interactive Weather Map New forecast layout! Learn more

10-Day Weather Forecast

Advertisements
Track Severe Weather on mobile